createdAt,value
2022-12-09T00:01:50.198Z,37.30
2022-12-09T00:04:20.294Z,37.63
2022-12-09T00:06:50.733Z,36.42
2022-12-09T00:09:20.912Z,39.25
2022-12-09T00:11:52.984Z,35.75
2022-12-09T00:14:23.592Z,36.30
2022-12-09T00:16:54.135Z,36.20
2022-12-09T00:19:24.287Z,37.95
2022-12-09T00:25:39.396Z,32.17
2022-12-09T00:28:08.401Z,37.40
2022-12-09T00:30:36.476Z,34.08
2022-12-09T00:33:04.793Z,37.17
2022-12-09T00:35:33.404Z,37.00
2022-12-09T00:38:01.636Z,40.72
2022-12-09T00:40:30.115Z,38.50
2022-12-09T00:42:58.427Z,34.15
2022-12-09T00:45:27.055Z,37.13
2022-12-09T00:47:55.406Z,35.67
2022-12-09T00:50:23.928Z,28.48
2022-12-09T00:52:52.213Z,29.25
2022-12-09T00:55:20.972Z,32.30
2022-12-09T00:57:49.247Z,35.08
2022-12-09T01:00:18.766Z,35.20
2022-12-09T01:02:46.237Z,36.03
2022-12-09T01:05:14.910Z,33.33
2022-12-09T01:07:42.875Z,33.28
2022-12-09T01:10:11.881Z,31.90
2022-12-09T01:12:40.360Z,30.70
2022-12-09T01:15:10.242Z,29.48
2022-12-09T01:17:40.857Z,29.63
2022-12-09T01:20:10.972Z,27.70
2022-12-09T01:22:41.664Z,27.15
2022-12-09T01:25:11.787Z,24.00
2022-12-09T01:27:40.622Z,25.05
2022-12-09T01:30:13.087Z,27.65
2022-12-09T01:32:43.794Z,28.10
2022-12-09T01:35:11.742Z,27.58
2022-12-09T01:37:40.301Z,30.92
2022-12-09T01:40:17.163Z,26.00
2022-12-09T01:42:49.524Z,22.30
2022-12-09T01:45:20.197Z,22.40
2022-12-09T01:48:03.812Z,26.38
2022-12-09T01:50:39.520Z,20.83
2022-12-09T01:53:14.743Z,22.98
2022-12-09T01:55:45.863Z,30.52
2022-12-09T01:58:19.109Z,24.00
2022-12-09T02:00:49.408Z,24.58
2022-12-09T02:03:19.771Z,25.25
2022-12-09T02:05:50.466Z,24.20
2022-12-09T02:08:20.664Z,25.00
2022-12-09T02:11:25.688Z,25.05
2022-12-09T02:14:39.735Z,24.42
2022-12-09T02:17:34.987Z,33.97
2022-12-09T02:20:35.163Z,21.40
2022-12-09T02:23:23.647Z,27.05
2022-12-09T02:26:22.165Z,26.98
2022-12-09T02:29:31.187Z,28.73
2022-12-09T02:32:52.750Z,29.08
2022-12-09T02:35:54.999Z,30.25
2022-12-09T02:38:33.579Z,29.75
2022-12-09T02:43:56.524Z,27.17
2022-12-09T02:46:29.309Z,26.90
2022-12-09T02:49:00.323Z,27.27
2022-12-09T02:51:42.433Z,30.05
2022-12-09T02:54:18.958Z,31.40
2022-12-09T02:57:19.405Z,34.00
2022-12-09T02:59:49.640Z,29.92
2022-12-09T03:02:41.130Z,30.90
2022-12-09T03:05:49.648Z,29.23
2022-12-09T03:08:55.396Z,33.60
2022-12-09T03:11:27.884Z,27.77
2022-12-09T03:14:19.120Z,24.48
2022-12-09T03:17:17.933Z,29.70
2022-12-09T03:20:01.686Z,30.50
2022-12-09T03:22:39.621Z,26.08
2022-12-09T03:25:30.650Z,22.77
2022-12-09T03:28:17.259Z,25.80
2022-12-09T03:30:48.720Z,29.20
2022-12-09T03:33:24.482Z,24.63
2022-12-09T03:36:03.328Z,26.45
2022-12-09T03:41:30.633Z,24.35
2022-12-09T03:44:24.602Z,28.75
2022-12-09T03:46:55.057Z,24.63
2022-12-09T03:49:25.452Z,24.10
2022-12-09T03:52:25.164Z,22.42
2022-12-09T03:55:27.418Z,24.75
2022-12-09T03:58:03.633Z,25.02
2022-12-09T04:00:39.416Z,22.58
2022-12-09T04:03:14.808Z,22.60
2022-12-09T04:05:45.692Z,25.17
2022-12-09T04:08:13.973Z,25.60
2022-12-09T04:10:42.342Z,23.88
2022-12-09T04:13:10.530Z,26.50
2022-12-09T04:15:38.652Z,26.05
2022-12-09T04:18:07.407Z,24.55
2022-12-09T04:20:35.636Z,23.85
2022-12-09T04:23:04.198Z,25.55
2022-12-09T04:25:32.815Z,22.33
2022-12-09T04:28:01.116Z,23.80
2022-12-09T04:30:29.429Z,28.30
2022-12-09T04:33:00.893Z,22.80
2022-12-09T04:35:29.449Z,31.35
2022-12-09T04:37:57.830Z,30.42
2022-12-09T04:40:26.048Z,24.60
2022-12-09T04:42:54.910Z,26.17
2022-12-09T04:45:22.854Z,29.65
2022-12-09T04:47:51.388Z,25.92
2022-12-09T04:50:19.762Z,23.83
2022-12-09T04:52:48.317Z,24.73
2022-12-09T04:55:16.960Z,28.80
2022-12-09T04:57:44.998Z,28.17
2022-12-09T05:00:14.689Z,28.70
2022-12-09T05:02:45.504Z,34.10
2022-12-09T05:05:16.283Z,27.33
2022-12-09T05:07:46.888Z,27.60
2022-12-09T05:10:17.376Z,34.50
2022-12-09T05:12:47.596Z,25.58
2022-12-09T05:15:18.460Z,28.77
2022-12-09T05:17:48.590Z,28.08
2022-12-09T05:20:19.471Z,26.23
2022-12-09T05:22:52.007Z,39.17
2022-12-09T05:25:24.115Z,30.17
2022-12-09T05:27:54.162Z,28.80
2022-12-09T05:30:24.543Z,26.08
2022-12-09T05:32:54.813Z,34.92
2022-12-09T05:35:25.583Z,29.63
2022-12-09T05:37:56.124Z,31.25
2022-12-09T05:40:26.406Z,30.15
2022-12-09T05:42:56.773Z,28.45
2022-12-09T05:45:26.874Z,31.60
2022-12-09T05:47:57.020Z,34.33
2022-12-09T05:50:27.377Z,33.40
2022-12-09T05:52:57.606Z,34.20
2022-12-09T05:55:28.192Z,37.28
2022-12-09T05:57:58.570Z,37.78
2022-12-09T06:00:28.698Z,32.90
2022-12-09T06:02:59.263Z,34.17
2022-12-09T06:05:29.512Z,28.98
2022-12-09T06:08:06.446Z,34.78
2022-12-09T06:10:34.991Z,34.17
2022-12-09T06:13:03.122Z,29.35
2022-12-09T06:15:33.670Z,26.63
2022-12-09T06:18:04.901Z,34.90
2022-12-09T06:20:35.361Z,26.10
2022-12-09T06:23:05.491Z,29.35
2022-12-09T06:25:36.889Z,31.20
2022-12-09T06:28:07.012Z,52.70
2022-12-09T06:30:37.784Z,50.05
2022-12-09T06:33:29.178Z,45.28
2022-12-09T06:36:05.401Z,48.92
2022-12-09T06:38:36.459Z,48.67
2022-12-09T06:41:15.610Z,39.08
2022-12-09T06:43:46.145Z,48.08
2022-12-09T06:46:26.326Z,52.88
2022-12-09T06:48:56.776Z,123.10
2022-12-09T06:51:26.297Z,66.55
2022-12-09T06:53:57.391Z,91.30
2022-12-09T06:56:24.847Z,64.82
2022-12-09T06:58:53.572Z,46.47
2022-12-09T07:01:25.935Z,44.47
2022-12-09T07:03:58.350Z,31.73
2022-12-09T07:06:41.913Z,52.10
2022-12-09T07:09:18.826Z,51.47
2022-12-09T07:11:49.835Z,43.13
2022-12-09T07:14:20.896Z,37.90
2022-12-09T07:16:51.458Z,44.92
2022-12-09T07:19:24.012Z,39.55
2022-12-09T07:21:53.232Z,40.13
2022-12-09T07:24:24.303Z,39.83
2022-12-09T07:26:53.399Z,37.28
2022-12-09T07:29:23.622Z,30.85
2022-12-09T07:31:53.723Z,34.20
2022-12-09T07:34:24.263Z,43.40
2022-12-09T07:36:54.705Z,42.05
2022-12-09T07:39:24.182Z,38.40
2022-12-09T07:41:57.882Z,31.33
2022-12-09T07:44:28.417Z,39.97
2022-12-09T07:46:58.500Z,52.17
2022-12-09T07:49:26.632Z,47.63
2022-12-09T07:51:54.832Z,51.00
2022-12-09T07:54:23.199Z,51.38
2022-12-09T07:56:51.360Z,61.25
2022-12-09T07:59:19.765Z,39.47
2022-12-09T08:01:48.202Z,54.35
2022-12-09T08:04:17.396Z,40.40
2022-12-09T08:06:45.511Z,46.83
2022-12-09T08:09:14.953Z,58.08
2022-12-09T08:11:45.294Z,40.75
2022-12-09T08:14:14.145Z,44.13
2022-12-09T08:16:43.568Z,49.15
2022-12-09T08:19:14.557Z,58.65
2022-12-09T08:21:48.415Z,44.58
2022-12-09T08:24:20.359Z,42.78
2022-12-09T08:26:51.478Z,58.90
2022-12-09T08:29:21.731Z,60.22
2022-12-09T08:31:52.300Z,46.17
2022-12-09T08:34:22.560Z,33.17
2022-12-09T08:36:57.031Z,50.30
2022-12-09T08:39:29.043Z,38.58
2022-12-09T08:41:59.445Z,53.42
2022-12-09T08:44:29.224Z,34.60
2022-12-09T08:46:59.499Z,40.45
2022-12-09T08:49:29.943Z,40.88
2022-12-09T08:52:00.487Z,40.70
2022-12-09T08:54:30.804Z,38.40
2022-12-09T08:57:00.607Z,39.88
2022-12-09T08:59:30.961Z,44.45
2022-12-09T09:02:00.977Z,28.40
2022-12-09T09:04:32.172Z,40.97
2022-12-09T09:07:00.733Z,45.53
2022-12-09T09:09:30.701Z,27.67
2022-12-09T09:12:01.920Z,21.73
2022-12-09T09:14:30.679Z,28.85
2022-12-09T09:17:00.969Z,37.28
2022-12-09T09:19:31.792Z,38.90
2022-12-09T09:22:00.680Z,27.25
2022-12-09T09:24:31.986Z,29.45
2022-12-09T09:27:03.458Z,32.05
2022-12-09T09:29:34.372Z,22.05
2022-12-09T09:32:04.930Z,24.88
2022-12-09T09:34:35.281Z,25.13
2022-12-09T09:37:05.593Z,23.42
2022-12-09T09:39:35.789Z,23.08
2022-12-09T09:42:19.666Z,22.33
2022-12-09T09:44:55.596Z,20.08
2022-12-09T09:47:50.454Z,26.75
2022-12-09T09:50:38.709Z,19.63
2022-12-09T09:53:26.801Z,24.88
2022-12-09T09:56:07.787Z,18.70
2022-12-09T09:58:54.128Z,23.95
2022-12-09T10:01:35.875Z,23.90
2022-12-09T10:04:44.500Z,24.05
2022-12-09T10:07:44.900Z,18.85
2022-12-09T10:10:44.466Z,31.98
2022-12-09T10:13:56.635Z,22.35
2022-12-09T10:17:13.595Z,23.23
2022-12-09T10:19:54.476Z,34.17
2022-12-09T10:22:33.666Z,26.77
2022-12-09T10:25:25.035Z,24.67
2022-12-09T10:28:29.355Z,29.42
2022-12-09T10:31:00.098Z,31.08
2022-12-09T10:33:38.059Z,20.40
2022-12-09T10:36:19.424Z,21.33
2022-12-09T10:38:50.200Z,30.88
2022-12-09T10:42:12.065Z,31.83
2022-12-09T10:44:43.745Z,39.10
2022-12-09T10:47:29.476Z,47.40
2022-12-09T10:49:59.633Z,17.70
2022-12-09T10:52:45.362Z,20.58
2022-12-09T10:55:38.943Z,29.20
2022-12-09T10:58:31.996Z,31.33
2022-12-09T11:01:16.215Z,25.08
2022-12-09T11:03:55.937Z,23.45
2022-12-09T11:06:38.169Z,28.10
2022-12-09T11:09:31.034Z,20.60
2022-12-09T11:12:08.794Z,50.10
2022-12-09T11:14:53.349Z,35.92
2022-12-09T11:17:55.872Z,20.00
2022-12-09T11:20:34.592Z,23.58
2022-12-09T11:23:13.645Z,25.15
2022-12-09T11:26:02.543Z,31.00
2022-12-09T11:28:40.535Z,28.20
2022-12-09T11:31:30.386Z,39.72
2022-12-09T11:34:26.296Z,36.58
2022-12-09T11:36:59.342Z,42.17
2022-12-09T11:39:38.414Z,72.10
2022-12-09T11:42:23.279Z,48.92
2022-12-09T11:45:06.854Z,50.13
2022-12-09T11:53:12.753Z,43.95
2022-12-09T11:55:59.127Z,46.38
2022-12-09T11:59:03.497Z,41.47
2022-12-09T12:01:54.426Z,46.05
2022-12-09T12:04:54.484Z,36.08
2022-12-09T12:07:47.488Z,44.47
2022-12-09T12:10:45.971Z,47.55
2022-12-09T12:13:46.998Z,38.08
2022-12-09T12:17:04.844Z,36.75
2022-12-09T12:19:41.026Z,45.25
2022-12-09T12:23:01.184Z,29.23
2022-12-09T12:26:11.033Z,33.42
2022-12-09T12:30:01.190Z,35.63
2022-12-09T12:37:22.950Z,48.90
2022-12-09T12:40:07.902Z,43.08
2022-12-09T12:43:31.764Z,46.60
2022-12-09T12:46:36.948Z,46.47
2022-12-09T12:50:02.235Z,37.90
2022-12-09T12:53:28.821Z,63.17
2022-12-09T12:56:07.549Z,30.60
2022-12-09T12:59:02.795Z,34.20
2022-12-09T13:01:57.650Z,35.70
2022-12-09T13:05:00.705Z,40.03
2022-12-09T13:08:08.102Z,31.75
2022-12-09T13:10:50.833Z,31.15
2022-12-09T13:13:34.136Z,38.40
2022-12-09T13:16:39.780Z,28.50
2022-12-09T13:19:41.637Z,44.05
2022-12-09T13:22:31.027Z,51.22
2022-12-09T13:25:38.741Z,38.10
2022-12-09T13:28:41.787Z,30.83
2022-12-09T13:31:12.319Z,30.80
2022-12-09T13:34:09.867Z,26.25
2022-12-09T13:36:48.718Z,40.13
2022-12-09T13:39:40.334Z,28.02
2022-12-09T13:42:46.315Z,33.95
2022-12-09T13:45:28.373Z,43.00
2022-12-09T13:48:16.593Z,26.50
2022-12-09T13:50:51.438Z,30.30
2022-12-09T13:53:21.329Z,42.35
2022-12-09T13:56:08.113Z,36.30
2022-12-09T13:59:20.267Z,33.72
2022-12-09T14:02:35.560Z,30.42
2022-12-09T14:05:21.009Z,31.67
2022-12-09T14:08:20.475Z,30.83
2022-12-09T14:10:52.239Z,29.98
2022-12-09T14:13:37.903Z,27.92
2022-12-09T14:16:26.588Z,24.63
2022-12-09T14:19:24.805Z,30.73
2022-12-09T14:22:20.216Z,31.63
2022-12-09T14:24:51.759Z,39.40
2022-12-09T14:27:31.589Z,34.83
2022-12-09T14:30:20.520Z,31.45
2022-12-09T14:32:50.401Z,34.38
2022-12-09T14:35:51.157Z,30.85
2022-12-09T14:39:07.831Z,32.92
2022-12-09T14:42:20.462Z,25.10
2022-12-09T14:45:30.795Z,33.78
2022-12-09T14:48:01.952Z,33.90
2022-12-09T14:50:32.192Z,26.33
2022-12-09T14:53:18.528Z,30.27
2022-12-09T14:55:49.980Z,30.17
2022-12-09T14:58:22.946Z,28.38
2022-12-09T15:01:06.721Z,35.70
2022-12-09T15:03:44.951Z,33.72
2022-12-09T15:06:21.075Z,33.33
2022-12-09T15:08:54.548Z,34.80
2022-12-09T15:11:35.956Z,31.55
2022-12-09T15:14:28.447Z,36.65
2022-12-09T15:16:59.303Z,31.65
2022-12-09T15:24:03.963Z,34.90
2022-12-09T15:26:34.389Z,31.02
2022-12-09T15:29:06.509Z,33.95
2022-12-09T15:31:49.855Z,37.03
2022-12-09T15:34:26.392Z,34.30
2022-12-09T15:37:06.354Z,31.60
2022-12-09T15:39:54.317Z,33.58
2022-12-09T15:42:30.982Z,35.25
2022-12-09T15:45:23.226Z,33.83
2022-12-09T15:48:23.255Z,31.10
2022-12-09T15:51:11.169Z,24.88
2022-12-09T15:53:56.251Z,31.20
2022-12-09T15:56:56.752Z,28.70
2022-12-09T15:59:57.138Z,31.95
2022-12-09T16:02:34.810Z,33.75
2022-12-09T16:05:10.424Z,29.67
2022-12-09T16:07:59.851Z,31.95
2022-12-09T16:10:30.424Z,32.85
2022-12-09T16:13:24.550Z,36.35
2022-12-09T16:15:59.617Z,33.17
2022-12-09T16:18:50.682Z,28.88
2022-12-09T16:21:29.326Z,31.55
2022-12-09T16:24:13.068Z,32.08
2022-12-09T16:26:51.228Z,29.92
2022-12-09T16:29:27.395Z,29.33
2022-12-09T16:32:23.856Z,26.65
2022-12-09T16:35:00.323Z,32.45
2022-12-09T16:37:33.531Z,36.55
2022-12-09T16:40:26.107Z,37.50
2022-12-09T16:43:16.070Z,35.97
2022-12-09T16:46:22.697Z,32.45
2022-12-09T16:48:52.733Z,37.78
2022-12-09T16:51:25.477Z,39.80
2022-12-09T16:53:56.146Z,33.03
2022-12-09T16:56:31.513Z,34.15
2022-12-09T16:59:10.980Z,36.22
2022-12-09T17:01:43.151Z,37.63
2022-12-09T17:04:29.191Z,41.28
2022-12-09T17:06:59.427Z,41.63
2022-12-09T17:09:29.556Z,36.90
2022-12-09T17:11:59.648Z,34.35
2022-12-09T17:14:29.698Z,33.40
2022-12-09T17:17:02.506Z,35.47
2022-12-09T17:19:32.683Z,35.78
2022-12-09T17:22:03.058Z,30.67
2022-12-09T17:24:33.336Z,34.08
2022-12-09T17:27:04.403Z,34.53
2022-12-09T17:29:34.500Z,46.67
2022-12-09T17:32:05.355Z,39.05
2022-12-09T17:34:33.306Z,44.83
2022-12-09T17:37:01.437Z,41.80
2022-12-09T17:39:30.529Z,39.38
2022-12-09T17:41:58.501Z,33.97
2022-12-09T17:44:26.906Z,40.63
2022-12-09T17:46:55.960Z,47.30
2022-12-09T17:49:23.813Z,44.13
2022-12-09T17:51:52.348Z,48.55
2022-12-09T17:54:20.657Z,46.90
2022-12-09T17:56:49.231Z,47.63
2022-12-09T17:59:18.892Z,44.00
2022-12-09T18:01:49.267Z,44.00
2022-12-09T18:04:17.598Z,47.20
2022-12-09T18:06:46.803Z,45.38
2022-12-09T18:09:20.540Z,52.75
2022-12-09T18:11:52.067Z,51.00
2022-12-09T18:14:22.311Z,52.28
2022-12-09T18:16:52.357Z,47.25
2022-12-09T18:19:24.949Z,47.58
2022-12-09T18:21:55.845Z,43.53
2022-12-09T18:24:25.961Z,52.80
2022-12-09T18:26:57.700Z,45.53
2022-12-09T18:29:28.317Z,46.97
2022-12-09T18:31:58.583Z,46.88
2022-12-09T18:34:29.600Z,59.22
2022-12-09T18:36:59.698Z,45.08
2022-12-09T18:39:30.292Z,48.58
2022-12-09T18:42:00.369Z,52.05
2022-12-09T18:44:30.382Z,48.30
2022-12-09T18:47:00.978Z,46.72
2022-12-09T18:49:32.149Z,46.97
2022-12-09T18:52:03.590Z,57.63
2022-12-09T18:54:33.664Z,48.30
2022-12-09T18:57:03.656Z,53.90
2022-12-09T18:59:33.749Z,48.53
2022-12-09T19:02:04.128Z,54.05
2022-12-09T19:04:35.594Z,53.72
2022-12-09T19:07:04.228Z,53.13
2022-12-09T19:09:36.394Z,55.45
2022-12-09T19:12:44.864Z,54.08
2022-12-09T19:14:59.220Z,51.10
2022-12-09T19:17:30.782Z,53.78
2022-12-09T19:20:00.891Z,53.88
2022-12-09T19:22:59.200Z,47.13
2022-12-09T19:25:27.235Z,55.38
2022-12-09T19:27:55.590Z,53.65
2022-12-09T19:30:42.211Z,48.13
2022-12-09T19:33:18.745Z,64.35
2022-12-09T19:35:47.452Z,60.38
2022-12-09T19:38:15.779Z,71.03
2022-12-09T19:40:44.286Z,59.13
2022-12-09T19:43:12.632Z,61.63
2022-12-09T19:45:41.200Z,55.38
2022-12-09T19:48:22.266Z,56.50
2022-12-09T19:51:20.099Z,52.03
2022-12-09T19:53:55.892Z,50.03
2022-12-09T19:56:27.847Z,56.55
2022-12-09T19:58:59.065Z,54.08
2022-12-09T20:01:34.982Z,58.03
2022-12-09T20:07:12.622Z,51.65
2022-12-09T20:09:42.718Z,56.65
2022-12-09T20:12:15.807Z,59.15
2022-12-09T20:14:44.440Z,54.83
2022-12-09T20:17:16.807Z,56.33
2022-12-09T20:19:47.393Z,52.78
2022-12-09T20:22:17.151Z,53.33
2022-12-09T20:24:47.222Z,57.10
2022-12-09T20:27:17.744Z,50.78
2022-12-09T20:29:48.477Z,51.67
2022-12-09T20:32:18.308Z,46.53
2022-12-09T20:34:49.830Z,44.40
2022-12-09T20:37:20.055Z,60.30
2022-12-09T20:39:50.169Z,44.58
2022-12-09T20:42:21.052Z,51.03
2022-12-09T20:44:56.545Z,51.35
2022-12-09T20:47:26.472Z,50.75
2022-12-09T20:49:54.326Z,55.13
2022-12-09T20:52:24.918Z,59.53
2022-12-09T20:54:59.574Z,44.28
2022-12-09T20:57:28.552Z,51.50
2022-12-09T21:00:01.268Z,47.00
2022-12-09T21:02:42.354Z,47.67
2022-12-09T21:05:13.636Z,50.85
2022-12-09T21:07:50.003Z,56.28
2022-12-09T21:10:23.490Z,55.65
2022-12-09T21:12:59.442Z,48.90
2022-12-09T21:15:36.809Z,52.92
2022-12-09T21:18:07.990Z,56.45
2022-12-09T21:20:44.315Z,60.05
2022-12-09T21:23:33.191Z,66.15
2022-12-09T21:26:13.532Z,61.30
2022-12-09T21:28:46.918Z,50.70
2022-12-09T21:31:23.048Z,51.05
2022-12-09T21:33:58.399Z,52.53
2022-12-09T21:36:32.644Z,48.58
2022-12-09T21:39:02.565Z,52.35
2022-12-09T21:41:36.818Z,44.58
2022-12-09T21:44:09.884Z,50.85
2022-12-09T21:46:39.896Z,49.75
2022-12-09T21:49:12.021Z,51.17
2022-12-09T21:51:49.342Z,51.60
2022-12-09T21:54:23.889Z,56.88
2022-12-09T21:57:00.847Z,50.22
2022-12-09T21:59:39.059Z,46.65
2022-12-09T22:02:17.405Z,54.93
2022-12-09T22:04:52.735Z,52.95
2022-12-09T22:07:22.861Z,46.92
2022-12-09T22:10:06.456Z,51.97
2022-12-09T22:12:36.002Z,56.08
2022-12-09T22:15:03.554Z,57.47
2022-12-09T22:17:33.109Z,53.58
2022-12-09T22:20:48.838Z,52.63
2022-12-09T22:22:52.936Z,52.78
2022-12-09T22:25:22.678Z,55.78
2022-12-09T22:27:52.721Z,57.10
2022-12-09T22:30:22.480Z,51.00
2022-12-09T22:32:52.566Z,56.67
2022-12-09T22:35:21.885Z,54.20
2022-12-09T22:37:51.003Z,48.78
2022-12-09T22:40:21.010Z,54.90
2022-12-09T22:42:50.822Z,50.60
2022-12-09T22:45:20.603Z,55.50
2022-12-09T22:47:50.398Z,55.75
2022-12-09T22:50:20.171Z,47.28
2022-12-09T22:52:50.133Z,48.15
2022-12-09T22:55:19.798Z,48.58
2022-12-09T22:57:51.925Z,49.72
2022-12-09T23:00:19.927Z,48.95
2022-12-09T23:02:49.991Z,51.60
2022-12-09T23:05:19.952Z,59.40
2022-12-09T23:07:49.782Z,50.90
2022-12-09T23:10:19.845Z,53.47
2022-12-09T23:12:49.801Z,59.33
2022-12-09T23:15:19.530Z,49.13
2022-12-09T23:17:49.278Z,53.10
2022-12-09T23:20:19.127Z,55.10
2022-12-09T23:22:49.398Z,58.53
2022-12-09T23:25:19.405Z,49.55
2022-12-09T23:27:49.484Z,52.45
2022-12-09T23:30:19.369Z,43.88
2022-12-09T23:32:49.193Z,43.55
2022-12-09T23:35:19.167Z,51.72
2022-12-09T23:37:49.043Z,49.88
2022-12-09T23:40:19.100Z,51.80
2022-12-09T23:42:53.323Z,47.05
2022-12-09T23:45:21.896Z,45.45
2022-12-09T23:47:51.747Z,49.00
2022-12-09T23:50:21.671Z,49.63
2022-12-09T23:52:49.020Z,41.75
2022-12-09T23:55:19.180Z,47.45
2022-12-09T23:57:48.890Z,42.58
